createdAt,value
2023-02-05T00:01:39.640Z,85.19
2023-02-05T00:04:07.426Z,85.29
2023-02-05T00:06:35.189Z,84.96
2023-02-05T00:09:02.884Z,85.05
2023-02-05T00:11:30.616Z,85.16
2023-02-05T00:13:59.685Z,84.98
2023-02-05T00:16:27.478Z,85.07
2023-02-05T00:18:55.538Z,85.15
2023-02-05T00:21:24.257Z,85.22
2023-02-05T00:23:52.319Z,85.21
2023-02-05T00:26:20.110Z,85.05
2023-02-05T00:28:47.895Z,85.11
2023-02-05T00:31:19.790Z,85.07
2023-02-05T00:33:48.351Z,85.18
2023-02-05T00:36:16.598Z,85.08
2023-02-05T00:38:46.536Z,85.37
2023-02-05T00:41:15.227Z,85.49
2023-02-05T00:43:43.417Z,85.14
2023-02-05T00:46:12.737Z,85.47
2023-02-05T00:48:42.938Z,85.35
2023-02-05T00:51:10.965Z,85.08
2023-02-05T00:53:38.744Z,85.52
2023-02-05T00:56:06.941Z,85.37
2023-02-05T00:58:35.345Z,85.47
2023-02-05T01:01:03.199Z,85.21
2023-02-05T01:03:30.957Z,85.33
2023-02-05T01:06:03.178Z,85.58
2023-02-05T01:08:30.928Z,85.37
2023-02-05T01:10:58.667Z,85.42
2023-02-05T01:13:26.549Z,85.48
2023-02-05T01:15:54.431Z,85.68
2023-02-05T01:18:22.157Z,85.89
2023-02-05T01:20:49.968Z,85.93
2023-02-05T01:23:19.111Z,85.53
2023-02-05T01:25:47.071Z,85.50
2023-02-05T01:28:14.818Z,85.42
2023-02-05T01:30:42.557Z,85.66
2023-02-05T01:33:10.278Z,85.94
2023-02-05T01:35:38.156Z,85.70
2023-02-05T01:38:05.893Z,85.90
2023-02-05T01:40:35.107Z,85.91
2023-02-05T01:43:02.830Z,85.85
2023-02-05T01:45:50.713Z,85.94
2023-02-05T01:48:20.974Z,85.79
2023-02-05T01:50:51.647Z,85.79
2023-02-05T01:53:23.663Z,86.04
2023-02-05T01:55:56.375Z,86.11
2023-02-05T01:58:28.300Z,86.18
2023-02-05T02:00:56.020Z,86.29
2023-02-05T02:03:25.981Z,86.31
2023-02-05T02:05:53.725Z,86.52
2023-02-05T02:08:21.438Z,86.23
2023-02-05T02:10:49.988Z,86.23
2023-02-05T02:13:20.322Z,86.62
2023-02-05T02:15:48.485Z,86.73
2023-02-05T02:18:28.475Z,86.67
2023-02-05T02:21:27.696Z,86.52
2023-02-05T02:24:09.468Z,86.83
2023-02-05T02:26:54.987Z,86.83
2023-02-05T02:29:28.464Z,87.01
2023-02-05T02:31:59.624Z,86.72
2023-02-05T02:34:32.389Z,87.09
2023-02-05T02:37:03.374Z,87.12
2023-02-05T02:39:34.276Z,87.23
2023-02-05T02:42:04.942Z,87.52
2023-02-05T02:44:38.694Z,87.56
2023-02-05T02:47:11.148Z,87.32
2023-02-05T02:49:42.822Z,87.58
2023-02-05T02:52:12.938Z,87.63
2023-02-05T02:54:42.443Z,87.70
2023-02-05T02:57:11.693Z,88.02
2023-02-05T02:59:42.265Z,88.17
2023-02-05T03:02:12.577Z,88.47
2023-02-05T03:04:41.752Z,88.65
2023-02-05T03:07:14.226Z,88.88
2023-02-05T03:09:44.722Z,89.32
2023-02-05T03:12:12.500Z,89.05
2023-02-05T03:14:41.669Z,89.50
2023-02-05T03:17:09.474Z,89.52
2023-02-05T03:19:37.203Z,89.51
2023-02-05T03:22:05.892Z,89.72
2023-02-05T03:24:33.756Z,90.04
2023-02-05T03:27:01.444Z,90.14
2023-02-05T03:29:31.322Z,90.34
2023-02-05T03:32:07.704Z,90.23
2023-02-05T03:34:46.073Z,90.79
2023-02-05T03:37:18.524Z,90.84
2023-02-05T03:39:54.742Z,90.87
2023-02-05T03:42:32.191Z,91.46
2023-02-05T03:45:19.457Z,91.67
2023-02-05T03:48:01.681Z,91.98
2023-02-05T03:50:31.531Z,92.10
2023-02-05T03:53:04.782Z,92.06
2023-02-05T03:55:35.855Z,92.27
2023-02-05T03:58:07.410Z,92.31
2023-02-05T04:00:35.774Z,92.33
2023-02-05T04:03:05.276Z,92.31
2023-02-05T04:05:33.519Z,92.57
2023-02-05T04:08:01.903Z,92.93
2023-02-05T04:10:29.696Z,93.55
2023-02-05T04:12:57.401Z,93.77
2023-02-05T04:15:25.529Z,93.73
2023-02-05T04:17:53.208Z,93.81
2023-02-05T04:20:22.410Z,94.31
2023-02-05T04:22:50.163Z,94.47
2023-02-05T04:25:17.925Z,94.00
2023-02-05T04:27:45.681Z,94.15
2023-02-05T04:30:14.002Z,94.11
2023-02-05T04:32:41.750Z,94.36
2023-02-05T04:35:09.540Z,94.31
2023-02-05T04:37:38.688Z,94.13
2023-02-05T04:40:07.876Z,94.29
2023-02-05T04:42:35.638Z,94.41
2023-02-05T04:45:03.387Z,94.62
2023-02-05T04:47:31.372Z,94.55
2023-02-05T04:49:59.285Z,94.15
2023-02-05T04:52:27.134Z,94.13
2023-02-05T04:54:56.270Z,94.11
2023-02-05T04:57:24.939Z,93.97
2023-02-05T04:59:52.627Z,94.06
2023-02-05T05:02:20.355Z,93.87
2023-02-05T05:04:48.052Z,93.91
2023-02-05T05:07:16.375Z,94.05
2023-02-05T05:09:44.701Z,94.24
2023-02-05T05:12:13.786Z,94.13
2023-02-05T05:14:41.517Z,93.95
2023-02-05T05:17:09.257Z,94.07
2023-02-05T05:19:37.264Z,94.21
2023-02-05T05:22:04.987Z,94.41
2023-02-05T05:24:32.781Z,94.22
2023-02-05T05:27:00.646Z,94.18
2023-02-05T05:29:29.824Z,94.51
2023-02-05T05:31:57.559Z,94.45
2023-02-05T05:34:25.560Z,94.73
2023-02-05T05:36:53.490Z,95.35
2023-02-05T05:39:38.802Z,95.30
2023-02-05T05:42:24.141Z,95.72
2023-02-05T05:44:53.263Z,95.67
2023-02-05T05:47:21.039Z,96.04
2023-02-05T05:49:49.020Z,96.29
2023-02-05T05:52:16.724Z,96.49
2023-02-05T05:54:44.460Z,96.52
2023-02-05T05:57:12.204Z,96.52
2023-02-05T05:59:39.958Z,96.67
2023-02-05T06:02:09.088Z,96.82
2023-02-05T06:04:36.821Z,96.68
2023-02-05T06:07:04.661Z,96.75
2023-02-05T06:09:32.393Z,96.64
2023-02-05T06:12:00.126Z,96.83
2023-02-05T06:14:27.888Z,96.99
2023-02-05T06:16:55.907Z,96.69
2023-02-05T06:19:25.065Z,96.65
2023-02-05T06:21:52.813Z,96.50
2023-02-05T06:24:20.590Z,96.64
2023-02-05T06:26:48.421Z,96.60
2023-02-05T06:29:16.298Z,96.55
2023-02-05T06:31:44.197Z,96.56
2023-02-05T06:34:12.114Z,96.13
2023-02-05T06:36:41.311Z,96.25
2023-02-05T06:39:09.108Z,96.19
2023-02-05T06:41:36.778Z,96.14
2023-02-05T06:44:05.247Z,96.29
2023-02-05T06:46:32.961Z,96.13
2023-02-05T06:49:00.709Z,96.28
2023-02-05T06:51:28.441Z,96.29
2023-02-05T06:53:57.522Z,96.39
2023-02-05T06:56:25.494Z,96.40
2023-02-05T06:58:53.250Z,96.54
2023-02-05T07:01:21.075Z,96.53
2023-02-05T07:03:49.517Z,96.21
2023-02-05T07:06:17.223Z,95.40
2023-02-05T07:08:46.859Z,94.21
2023-02-05T07:11:15.975Z,93.90
2023-02-05T07:13:43.778Z,93.93
2023-02-05T07:16:11.504Z,93.12
2023-02-05T07:18:39.329Z,92.83
2023-02-05T07:21:09.096Z,93.12
2023-02-05T07:23:37.144Z,92.90
2023-02-05T07:26:08.592Z,93.06
2023-02-05T07:28:37.667Z,92.99
2023-02-05T07:31:06.435Z,93.06
2023-02-05T07:33:36.347Z,93.05
2023-02-05T07:36:04.752Z,92.87
2023-02-05T07:38:32.474Z,92.64
2023-02-05T07:41:00.119Z,92.59
2023-02-05T07:43:27.787Z,93.02
2023-02-05T07:46:00.618Z,92.79
2023-02-05T07:48:28.389Z,92.89
2023-02-05T07:50:56.091Z,93.23
2023-02-05T07:53:23.862Z,93.40
2023-02-05T07:55:51.600Z,93.56
2023-02-05T07:58:19.480Z,93.81
2023-02-05T08:00:47.280Z,93.95
2023-02-05T08:03:16.389Z,94.16
2023-02-05T08:05:44.124Z,94.33
2023-02-05T08:08:13.275Z,94.31
2023-02-05T08:10:41.104Z,94.30
2023-02-05T08:13:08.775Z,94.93
2023-02-05T08:15:39.317Z,95.10
2023-02-05T08:18:07.386Z,95.08
2023-02-05T08:20:36.505Z,95.25
2023-02-05T08:23:05.147Z,95.16
2023-02-05T08:25:33.112Z,95.42
2023-02-05T08:28:00.995Z,95.06
2023-02-05T08:30:28.726Z,95.40
2023-02-05T08:32:56.448Z,95.35
2023-02-05T08:35:24.169Z,95.38
2023-02-05T08:37:53.318Z,95.27
2023-02-05T08:40:21.490Z,95.04
2023-02-05T08:42:52.778Z,94.59
2023-02-05T08:45:20.874Z,94.51
2023-02-05T08:47:48.636Z,94.15
2023-02-05T08:50:16.607Z,94.04
2023-02-05T08:52:44.292Z,93.68
2023-02-05T08:55:13.461Z,93.60
2023-02-05T08:57:41.839Z,93.76
2023-02-05T09:00:11.144Z,93.76
2023-02-05T09:02:38.937Z,94.34
2023-02-05T09:05:11.555Z,94.29
2023-02-05T09:07:40.541Z,94.08
2023-02-05T09:10:09.535Z,94.63
2023-02-05T09:12:38.796Z,94.52
2023-02-05T09:15:07.784Z,94.76
2023-02-05T09:17:35.640Z,94.79
2023-02-05T09:20:04.940Z,95.23
2023-02-05T09:22:32.704Z,95.67
2023-02-05T09:25:00.479Z,95.62
2023-02-05T09:27:28.583Z,95.73
2023-02-05T09:29:57.825Z,95.61
2023-02-05T09:32:25.772Z,95.67
2023-02-05T09:34:53.477Z,95.48
2023-02-05T09:37:22.464Z,95.76
2023-02-05T09:42:50.803Z,95.98
2023-02-05T09:45:33.604Z,95.75
2023-02-05T09:48:13.716Z,96.08
2023-02-05T09:50:42.250Z,96.17
2023-02-05T09:53:13.537Z,95.79
2023-02-05T09:55:44.905Z,96.44
2023-02-05T09:58:17.727Z,96.00
2023-02-05T10:00:48.577Z,96.38
2023-02-05T10:03:22.738Z,96.00
2023-02-05T10:06:06.177Z,96.51
2023-02-05T10:08:39.172Z,96.37
2023-02-05T10:11:13.089Z,96.40
2023-02-05T10:13:42.782Z,97.04
2023-02-05T10:16:31.191Z,96.87
2023-02-05T10:19:08.837Z,96.68
2023-02-05T10:22:03.288Z,96.79
2023-02-05T10:24:41.690Z,96.85
2023-02-05T10:27:17.356Z,96.24
2023-02-05T10:29:49.336Z,96.44
2023-02-05T10:32:22.809Z,95.88
2023-02-05T10:34:57.079Z,95.54
2023-02-05T10:37:35.850Z,94.91
2023-02-05T10:40:07.506Z,95.03
2023-02-05T10:42:39.418Z,94.65
2023-02-05T10:45:18.065Z,93.87
2023-02-05T10:47:57.569Z,93.46
2023-02-05T10:50:29.758Z,92.96
2023-02-05T10:52:57.698Z,93.14
2023-02-05T10:55:25.452Z,92.79
2023-02-05T10:57:53.153Z,91.92
2023-02-05T11:00:22.443Z,90.75
2023-02-05T11:02:54.786Z,89.77
2023-02-05T11:05:31.342Z,89.54
2023-02-05T11:07:59.546Z,89.31
2023-02-05T11:10:28.794Z,89.53
2023-02-05T11:12:58.395Z,88.72
2023-02-05T11:15:27.429Z,87.81
2023-02-05T11:18:00.171Z,87.12
2023-02-05T11:20:32.918Z,87.07
2023-02-05T11:23:10.068Z,86.80
2023-02-05T11:25:37.776Z,87.00
2023-02-05T11:28:06.061Z,85.99
2023-02-05T11:30:56.043Z,85.33
2023-02-05T11:33:31.191Z,85.07
2023-02-05T11:36:01.316Z,84.43
2023-02-05T11:38:35.302Z,84.40
2023-02-05T11:41:05.526Z,83.53
2023-02-05T11:43:34.907Z,83.36
2023-02-05T11:46:03.960Z,83.34
2023-02-05T11:48:40.598Z,83.15
2023-02-05T11:51:10.588Z,83.04
2023-02-05T11:53:39.770Z,83.47
2023-02-05T11:56:11.652Z,84.33
2023-02-05T11:58:39.474Z,83.94
2023-02-05T12:01:23.928Z,83.19
2023-02-05T12:04:01.067Z,83.95
2023-02-05T12:06:34.860Z,84.46
2023-02-05T12:09:02.746Z,83.79
2023-02-05T12:12:11.255Z,82.97
2023-02-05T12:14:43.232Z,83.08
2023-02-05T12:17:29.820Z,82.77
2023-02-05T12:20:03.077Z,82.58
2023-02-05T12:22:56.668Z,83.21
2023-02-05T12:25:27.154Z,83.58
2023-02-05T12:28:18.681Z,84.40
2023-02-05T12:31:00.157Z,84.68
2023-02-05T12:33:52.218Z,84.80
2023-02-05T12:36:30.317Z,83.60
2023-02-05T12:39:05.397Z,82.46
2023-02-05T12:41:37.910Z,80.78
2023-02-05T12:44:16.785Z,80.04
2023-02-05T12:46:55.576Z,78.48
2023-02-05T12:49:42.063Z,78.85
2023-02-05T12:52:22.369Z,77.72
2023-02-05T12:55:07.442Z,78.10
2023-02-05T12:57:39.775Z,76.50
2023-02-05T13:00:14.091Z,76.74
2023-02-05T13:02:48.477Z,76.52
2023-02-05T13:05:21.123Z,76.32
2023-02-05T13:07:55.276Z,76.42
2023-02-05T13:10:24.894Z,75.91
2023-02-05T13:12:55.263Z,76.40
2023-02-05T13:15:24.700Z,76.46
2023-02-05T13:17:59.816Z,76.67
2023-02-05T13:20:44.802Z,76.74
2023-02-05T13:23:32.141Z,76.44
2023-02-05T13:26:18.318Z,76.64
2023-02-05T13:28:47.662Z,76.91
2023-02-05T13:31:23.651Z,76.24
2023-02-05T13:33:52.478Z,75.90
2023-02-05T13:36:49.804Z,74.99
2023-02-05T13:39:34.717Z,74.44
2023-02-05T13:42:15.413Z,75.73
2023-02-05T13:45:19.304Z,74.87
2023-02-05T13:48:08.456Z,74.79
2023-02-05T13:51:03.689Z,75.69
2023-02-05T13:53:44.885Z,75.43
2023-02-05T13:56:48.019Z,74.95
2023-02-05T13:59:19.811Z,73.71
2023-02-05T14:01:52.652Z,74.16
2023-02-05T14:04:24.909Z,73.63
2023-02-05T14:07:01.305Z,73.22
2023-02-05T14:09:35.331Z,72.97
2023-02-05T14:12:06.502Z,73.20
2023-02-05T14:14:36.530Z,73.16
2023-02-05T14:17:42.525Z,72.68
2023-02-05T14:20:33.708Z,73.14
2023-02-05T14:23:02.636Z,72.61
2023-02-05T14:26:07.015Z,71.65
2023-02-05T14:28:36.219Z,72.35
2023-02-05T14:31:04.481Z,72.63
2023-02-05T14:33:42.165Z,71.82
2023-02-05T14:36:31.451Z,72.35
2023-02-05T14:39:02.106Z,71.81
2023-02-05T14:41:32.167Z,72.17
2023-02-05T14:44:02.076Z,71.68
2023-02-05T14:46:32.483Z,71.91
2023-02-05T14:49:02.407Z,71.65
2023-02-05T14:51:35.433Z,71.87
2023-02-05T14:54:05.076Z,72.06
2023-02-05T14:56:39.378Z,71.31
2023-02-05T14:59:19.568Z,70.85
2023-02-05T15:01:54.232Z,70.38
2023-02-05T15:04:41.777Z,70.54
2023-02-05T15:07:14.199Z,70.67
2023-02-05T15:09:45.249Z,70.57
2023-02-05T15:12:40.856Z,70.16
2023-02-05T15:15:33.696Z,70.35
2023-02-05T15:18:15.419Z,70.22
2023-02-05T15:20:47.398Z,69.08
2023-02-05T15:23:28.725Z,68.63
2023-02-05T15:26:00.048Z,67.85
2023-02-05T15:28:33.900Z,67.74
2023-02-05T15:31:10.922Z,67.46
2023-02-05T15:33:50.187Z,67.34
2023-02-05T15:36:22.578Z,67.58
2023-02-05T15:38:54.680Z,67.56
2023-02-05T15:41:22.833Z,67.57
2023-02-05T15:44:01.140Z,67.73
2023-02-05T15:46:29.741Z,68.06
2023-02-05T15:48:58.019Z,67.23
2023-02-05T15:51:29.905Z,67.65
2023-02-05T15:54:00.098Z,67.37
2023-02-05T15:56:32.086Z,66.90
2023-02-05T15:59:01.778Z,67.23
2023-02-05T16:01:31.685Z,67.43
2023-02-05T16:03:59.690Z,66.94
2023-02-05T16:06:29.273Z,67.27
2023-02-05T16:08:57.529Z,67.51
2023-02-05T16:11:31.543Z,67.97
2023-02-05T16:14:11.587Z,67.83
2023-02-05T16:16:41.567Z,68.20
2023-02-05T16:19:16.746Z,69.60
2023-02-05T16:21:47.567Z,68.88
2023-02-05T16:24:23.981Z,68.78
2023-02-05T16:26:57.055Z,68.97
